Time;durP1;ratioP1;P1;durP2;ratioP2;P2;SDS_P1;SDS_P2;PMS_P1;PMS_P2;Temp;Humidity;BMP_temperature;BMP_pressure;BME280_temperature;BME280_humidity;BME280_pressure;Samples;Min_cycle;Max_cycle;Signal;HPM_P1;HPM_P2
2021/01/03 00:00:28;;;;;;;6.58;4.25;;;;;;;0.80;77.70;97916.87;1618665;89;21192;-63
2021/01/03 00:03:00;;;;;;;5.42;4.80;;;;;;;0.79;77.51;97914.77;1618392;89;21205;-64
2021/01/03 00:05:32;;;;;;;6.08;4.90;;;;;;;0.79;77.42;97910.92;1618470;89;21633;-64
2021/01/03 00:08:00;;;;;;;7.58;4.12;;;;;;;0.79;77.56;97908.38;1618615;89;21260;-63
2021/01/03 00:10:28;;;;;;;8.88;4.75;;;;;;;0.81;77.87;97915.97;1618508;88;21201;-64
2021/01/03 00:12:56;;;;;;;7.22;3.77;;;;;;;0.80;76.95;97917.70;1618750;89;21236;-64
2021/01/03 00:15:24;;;;;;;5.75;3.87;;;;;;;0.84;76.87;97914.52;1618696;89;21204;-64
2021/01/03 00:17:53;;;;;;;9.78;4.53;;;;;;;0.88;76.87;97912.16;1637420;86;21226;-64
2021/01/03 00:20:26;;;;;;;9.13;3.92;;;;;;;0.90;77.27;97917.55;1641636;87;21207;-63
2021/01/03 00:22:54;;;;;;;5.53;3.27;;;;;;;0.93;77.01;97919.93;1641324;86;21231;-64
2021/01/03 00:25:26;;;;;;;4.45;2.33;;;;;;;0.97;76.91;97921.06;1641511;87;21234;-64
2021/01/03 00:27:54;;;;;;;2.22;1.75;;;;;;;1.03;76.62;97925.38;1641303;86;21632;-64
2021/01/03 00:30:26;;;;;;;3.52;2.90;;;;;;;1.10;76.27;97921.56;1641221;86;21607;-64
2021/01/03 00:32:56;;;;;;;3.35;1.82;;;;;;;1.21;75.84;97925.63;1641366;86;21664;-65
2021/01/03 00:35:32;;;;;;;3.77;2.47;;;;;;;1.31;75.18;97933.62;1641460;86;21599;-64
2021/01/03 00:38:04;;;;;;;2.70;1.87;;;;;;;1.47;74.98;97928.45;1641575;87;21235;-62
2021/01/03 00:40:34;;;;;;;4.17;2.02;;;;;;;1.47;74.98;97928.45;1641103;86;21719;-62
2021/01/03 00:43:03;;;;;;;9.80;3.85;;;;;;;1.51;74.34;97937.16;1641245;87;21198;-62
2021/01/03 00:45:32;;;;;;;18.92;5.65;;;;;;;1.54;74.26;97934.87;1641138;87;21227;-62
2021/01/03 00:48:00;;;;;;;6.62;3.65;;;;;;;1.46;73.64;97933.20;1641378;87;21195;-62
2021/01/03 00:50:28;;;;;;;10.28;5.72;;;;;;;1.40;73.85;97941.59;1641339;86;21203;-64
2021/01/03 00:52:57;;;;;;;6.78;4.28;;;;;;;1.33;73.81;97932.61;1641134;87;21152;-64
2021/01/03 00:55:25;;;;;;;7.55;4.62;;;;;;;1.28;73.51;97932.52;1641190;86;21580;-62
2021/01/03 00:57:53;;;;;;;8.15;5.78;;;;;;;1.21;73.27;97940.14;1641200;86;21591;-62
2021/01/03 01:00:46;;;;;;;10.35;6.55;;;;;;;1.13;73.47;97935.45;1641505;87;21199;-64
2021/01/03 01:03:14;;;;;;;9.33;4.55;;;;;;;1.09;73.57;97939.09;1648195;87;21242;-64
2021/01/03 01:05:42;;;;;;;9.05;4.78;;;;;;;0.99;73.90;97935.85;1648074;86;21749;-67
2021/01/03 01:08:10;;;;;;;8.03;4.45;;;;;;;1.01;74.14;97945.56;1647949;87;21340;-68
2021/01/03 01:10:38;;;;;;;8.63;5.05;;;;;;;0.96;74.12;97935.58;1648219;86;21159;-68
2021/01/03 01:13:06;;;;;;;11.40;4.58;;;;;;;0.98;74.20;97931.64;1648140;86;21186;-67
2021/01/03 01:15:35;;;;;;;6.47;3.98;;;;;;;0.89;74.46;97926.60;1648168;87;21190;-68
2021/01/03 01:18:03;;;;;;;5.40;3.85;;;;;;;0.93;74.33;97933.99;1648101;86;21187;-67
2021/01/03 01:23:13;;;;;;;5.78;3.90;;;;;;;0.90;74.58;97933.34;1699995;83;21150;-71
2021/01/03 01:25:41;;;;;;;9.23;3.62;;;;;;;0.88;74.44;97924.95;1701010;84;21130;-67
2021/01/03 01:28:10;;;;;;;6.90;5.15;;;;;;;0.89;74.49;97924.88;1700825;84;21162;-67
2021/01/03 01:30:38;;;;;;;7.20;4.10;;;;;;;0.85;74.51;97917.45;1701056;84;21154;-68
2021/01/03 01:33:06;;;;;;;10.08;4.80;;;;;;;0.81;74.49;97909.12;1701083;84;21599;-68
2021/01/03 01:35:36;;;;;;;4.72;4.10;;;;;;;0.82;74.76;97902.25;1700951;84;21158;-67
2021/01/03 01:38:05;;;;;;;10.85;6.10;;;;;;;0.79;75.07;97910.92;1701079;84;21214;-68
2021/01/03 01:40:37;;;;;;;9.95;3.95;;;;;;;0.72;75.37;97904.50;1700715;84;21202;-67
2021/01/03 01:43:11;;;;;;;7.28;4.80;;;;;;;0.69;75.62;97896.19;1700774;83;21594;-67
2021/01/03 01:45:42;;;;;;;7.17;4.80;;;;;;;0.59;76.11;97900.13;1700643;84;21594;-67
2021/01/03 01:48:28;;;;;;;7.95;4.42;;;;;;;0.61;76.22;97904.72;1700769;84;21131;-67
2021/01/03 01:51:03;;;;;;;9.33;5.55;;;;;;;0.61;75.90;97908.10;1668682;85;21163;-67
2021/01/03 01:56:57;;;;;;;7.42;3.95;;;;;;;0.66;75.88;97891.25;1728868;81;21181;-68
2021/01/03 02:00:10;;;;;;;7.12;5.10;;;;;;;0.68;76.25;97904.30;1756743;82;21301;-67
2021/01/03 02:02:43;;;;;;;7.42;3.72;;;;;;;0.72;76.30;97911.34;1603993;89;21268;-67
2021/01/03 02:05:38;;;;;;;5.33;2.92;;;;;;;0.73;76.09;97883.16;1611000;88;21200;-63
2021/01/03 02:08:21;;;;;;;5.53;4.90;;;;;;;0.76;75.79;97884.71;1643245;86;21178;-63
2021/01/03 02:10:50;;;;;;;7.50;3.77;;;;;;;0.74;75.95;97882.23;1642824;86;21681;-63
2021/01/03 02:16:14;;;;;;;10.23;4.33;;;;;;;0.79;76.17;97872.58;1710255;83;21195;-67
2021/01/03 02:18:44;;;;;;;4.15;3.77;;;;;;;0.82;76.35;97871.58;1711519;83;21234;-67
2021/01/03 02:21:37;;;;;;;10.65;4.60;;;;;;;0.82;76.21;97864.73;1711746;83;21179;-67
2021/01/03 02:24:46;;;;;;;7.28;4.97;;;;;;;0.84;76.31;97857.00;1711675;83;21286;-63
2021/01/03 02:27:19;;;;;;;6.37;4.37;;;;;;;0.83;76.37;97856.63;1569405;91;21225;-63
2021/01/03 02:29:51;;;;;;;7.90;4.85;;;;;;;0.85;76.44;97854.82;1547775;91;21623;-63
2021/01/03 02:32:21;;;;;;;6.75;4.08;;;;;;;0.86;76.36;97855.99;1592148;90;21194;-63
2021/01/03 02:34:52;;;;;;;7.72;4.53;;;;;;;0.88;76.37;97854.64;1592319;90;21537;-65
2021/01/03 02:37:46;;;;;;;6.72;3.95;;;;;;;0.90;76.50;97851.53;1592122;90;21231;-64
2021/01/03 02:40:24;;;;;;;5.83;4.05;;;;;;;0.91;76.79;97841.68;1645551;87;21179;-64
2021/01/03 02:42:53;;;;;;;9.38;4.03;;;;;;;0.93;76.57;97839.39;1645325;87;21202;-64
2021/01/03 02:45:26;;;;;;;6.90;4.47;;;;;;;0.98;76.60;97838.31;1645552;87;21246;-65
2021/01/03 02:48:23;;;;;;;5.50;2.65;;;;;;;0.95;76.98;97845.27;1645308;87;21187;-64
2021/01/03 02:50:52;;;;;;;5.58;3.30;;;;;;;1.01;76.38;97848.39;1634752;87;21210;-64
2021/01/03 02:53:21;;;;;;;4.90;3.58;;;;;;;1.05;76.27;97860.09;1618711;87;21190;-63
2021/01/03 02:55:49;;;;;;;8.33;4.08;;;;;;;1.07;76.67;97859.09;1618852;87;21198;-64
2021/01/03 02:58:17;;;;;;;7.08;5.00;;;;;;;1.07;76.66;97866.77;1618915;87;21190;-64
2021/01/03 03:00:45;;;;;;;6.53;3.72;;;;;;;0.98;76.59;97867.72;1634333;87;21272;-64
2021/01/03 03:03:13;;;;;;;3.83;2.90;;;;;;;0.98;76.41;97858.77;1634659;87;21662;-65
2021/01/03 03:05:41;;;;;;;5.12;3.37;;;;;;;1.04;76.18;97850.32;1634437;87;21225;-64
2021/01/03 03:08:09;;;;;;;6.15;4.58;;;;;;;1.06;76.52;97844.65;1634374;87;21669;-64
2021/01/03 03:10:37;;;;;;;7.53;4.08;;;;;;;1.05;77.12;97832.77;1634492;87;21192;-64
2021/01/03 03:13:05;;;;;;;4.50;3.70;;;;;;;1.06;77.25;97830.58;1634359;87;21194;-67
2021/01/03 03:15:33;;;;;;;8.10;4.37;;;;;;;1.06;77.33;97835.70;1634454;87;21189;-66
2021/01/03 03:18:02;;;;;;;3.35;3.02;;;;;;;0.94;77.54;97846.16;1610425;87;21626;-67
2021/01/03 03:20:30;;;;;;;5.85;3.62;;;;;;;1.02;77.22;97839.79;1634355;87;21210;-67
2021/01/03 03:22:59;;;;;;;5.45;3.15;;;;;;;1.06;76.72;97834.87;1634387;87;21171;-66
2021/01/03 03:25:28;;;;;;;6.00;2.95;;;;;;;1.04;77.21;97834.98;1634542;87;21249;-66
2021/01/03 03:27:56;;;;;;;5.00;3.55;;;;;;;1.00;77.17;97831.39;1634687;87;21237;-66
2021/01/03 03:30:46;;;;;;;5.30;3.37;;;;;;;0.91;78.03;97826.34;1618891;87;21754;-66
2021/01/03 03:33:14;;;;;;;8.48;3.27;;;;;;;0.88;78.13;97830.36;1637251;86;21195;-67
2021/01/03 03:35:42;;;;;;;5.45;2.72;;;;;;;0.86;78.42;97828.33;1646383;86;21733;-67
2021/01/03 03:38:23;;;;;;;4.33;2.47;;;;;;;0.89;78.34;97809.83;1744638;81;21170;-66
2021/01/03 03:40:50;;;;;;;6.08;2.67;;;;;;;0.84;77.84;97799.48;1724915;82;21159;-66
2021/01/03 03:43:18;;;;;;;4.75;2.37;;;;;;;0.98;77.48;97813.57;1725220;82;21162;-67
2021/01/03 03:45:46;;;;;;;3.20;2.35;;;;;;;1.05;76.96;97819.98;1725256;83;21587;-66
2021/01/03 03:48:14;;;;;;;2.85;1.92;;;;;;;1.07;76.62;97818.17;1724965;83;21230;-67
2021/01/03 03:50:42;;;;;;;5.55;2.27;;;;;;;1.09;76.54;97817.61;1725290;83;21207;-67
2021/01/03 03:53:10;;;;;;;3.72;2.25;;;;;;;1.09;76.42;97816.33;1725017;83;21611;-67
2021/01/03 03:55:40;;;;;;;4.53;2.62;;;;;;;1.09;76.20;97821.45;1725338;83;21211;-67
2021/01/03 03:58:09;;;;;;;9.68;2.40;;;;;;;1.06;76.19;97824.64;1725000;82;21190;-67
2021/01/03 04:00:37;;;;;;;3.45;1.90;;;;;;;1.04;76.18;97826.03;1725182;83;21163;-67
2021/01/03 04:03:05;;;;;;;3.85;2.22;;;;;;;1.01;76.20;97826.20;1725098;83;21587;-66
2021/01/03 04:05:33;;;;;;;3.67;2.50;;;;;;;0.95;76.75;97827.36;1725299;83;21187;-66
2021/01/03 04:08:01;;;;;;;2.40;2.10;;;;;;;0.90;77.46;97829.80;1725657;82;21159;-66
2021/01/03 04:10:30;;;;;;;3.45;2.42;;;;;;;0.88;76.53;97822.69;1725536;83;21548;-66
2021/01/03 04:12:58;;;;;;;2.87;1.80;;;;;;;0.88;76.55;97807.34;1725182;83;21219;-67
2021/01/03 04:15:26;;;;;;;4.72;2.70;;;;;;;0.84;77.37;97812.27;1725480;83;21624;-66
2021/01/03 04:20:35;;;;;;;6.17;2.33;;;;;;;0.76;78.09;97809.31;1710915;83;21563;-66
2021/01/03 04:23:10;;;;;;;2.98;1.62;;;;;;;0.75;77.54;97807.66;1711123;84;21146;-66
2021/01/03 04:25:38;;;;;;;4.90;2.08;;;;;;;0.73;77.36;97807.77;1721579;83;21558;-66
2021/01/03 04:28:07;;;;;;;4.20;2.20;;;;;;;0.72;77.18;97811.22;1721599;83;21141;-66
2021/01/03 04:30:35;;;;;;;4.60;3.05;;;;;;;0.73;77.04;97822.27;1710917;84;21143;-66
2021/01/03 04:33:03;;;;;;;3.00;2.15;;;;;;;0.71;76.91;97826.63;1710707;84;21169;-66
2021/01/03 04:35:31;;;;;;;4.47;2.30;;;;;;;0.68;76.98;97828.91;1710766;84;21135;-66
2021/01/03 04:37:59;;;;;;;4.60;2.15;;;;;;;0.63;77.30;97828.33;1721349;83;21147;-66
2021/01/03 04:40:31;;;;;;;4.03;2.15;;;;;;;0.58;77.44;97827.78;1721475;83;21193;-67
2021/01/03 04:43:23;;;;;;;4.22;2.37;;;;;;;0.57;77.65;97827.86;1710838;84;21115;-66
2021/01/03 04:46:00;;;;;;;2.70;2.37;;;;;;;0.57;77.46;97822.30;1664768;86;21185;-66
2021/01/03 04:48:32;;;;;;;3.37;2.45;;;;;;;0.56;77.70;97819.81;1654778;86;21613;-66
2021/01/03 04:51:17;;;;;;;3.37;2.95;;;;;;;0.55;77.76;97813.87;1664461;86;21225;-67
2021/01/03 04:53:56;;;;;;;2.87;2.17;;;;;;;0.34;77.48;97779.31;1655283;86;21190;-67
2021/01/03 04:56:42;;;;;;;3.25;2.08;;;;;;;0.52;78.63;97808.94;1664519;86;21514;-67
2021/01/03 04:59:31;;;;;;;2.80;2.52;;;;;;;0.47;78.08;97801.52;1654914;86;21181;-66
2021/01/03 05:02:32;;;;;;;3.85;2.75;;;;;;;0.50;77.91;97806.94;1664525;86;21184;-66
2021/01/03 05:05:32;;;;;;;2.77;1.82;;;;;;;0.52;77.83;97806.84;1752092;82;21319;-67
2021/01/03 05:08:30;;;;;;;4.55;2.80;;;;;;;0.53;77.78;97813.60;1728250;82;21195;-66
2021/01/03 05:11:27;;;;;;;3.10;2.47;;;;;;;0.56;77.59;97813.42;1721193;83;21172;-66
2021/01/03 05:16:44;;;;;;;5.83;2.50;;;;;;;0.51;77.69;97821.81;1682710;84;21212;-67
2021/01/03 05:19:12;;;;;;;2.77;1.87;;;;;;;0.54;77.72;97826.75;1715434;83;21591;-67
2021/01/03 05:21:54;;;;;;;7.05;2.83;;;;;;;0.57;77.60;97822.75;1715211;83;21179;-66
2021/01/03 05:24:29;;;;;;;3.35;2.33;;;;;;;0.59;77.64;97825.58;1715719;83;21573;-66
2021/01/03 05:27:16;;;;;;;6.80;2.70;;;;;;;0.62;77.66;97829.27;1715506;83;21553;-65
2021/01/03 05:29:44;;;;;;;;;;;;;;;0.65;77.38;97831.64;1717765;82;21140;-63
2021/01/03 05:32:16;;;;;;;2.45;1.87;;;;;;;0.69;77.55;97839.96;1715347;84;20132;-64
2021/01/03 05:34:44;;;;;;;6.05;2.55;;;;;;;0.74;77.58;97840.53;1714029;82;21113;-64
2021/01/03 05:37:20;;;;;;;3.45;2.62;;;;;;;0.77;77.45;97835.25;1715208;83;21625;-64
2021/01/03 05:39:49;;;;;;;4.17;2.60;;;;;;;0.77;78.55;97830.14;1715472;83;21136;-64
2021/01/03 05:42:26;;;;;;;4.12;2.27;;;;;;;0.79;78.36;97821.46;1715373;83;21172;-66
2021/01/03 05:45:06;;;;;;;2.50;2.00;;;;;;;0.83;77.85;97826.77;1715326;84;21593;-66
2021/01/03 05:47:38;;;;;;;5.05;2.52;;;;;;;0.88;77.55;97835.02;1703366;82;21239;-67
2021/01/03 05:50:34;;;;;;;1.77;1.47;;;;;;;0.93;77.41;97833.00;1715397;83;21169;-66
2021/01/03 05:53:11;;;;;;;4.72;2.50;;;;;;;0.94;77.50;97828.72;1715239;83;21179;-67
2021/01/03 05:55:43;;;;;;;4.28;2.40;;;;;;;0.93;77.73;97823.26;1715216;84;22362;-67
2021/01/03 05:58:43;;;;;;;3.60;2.45;;;;;;;0.95;77.62;97825.27;1714484;82;21121;-67
2021/01/03 06:01:31;;;;;;;4.80;3.33;;;;;;;0.93;78.31;97821.98;1732557;83;21560;-66
2021/01/03 06:04:08;;;;;;;7.05;3.40;;;;;;;0.99;77.75;97816.95;1732650;81;21220;-66
2021/01/03 06:06:48;;;;;;;5.97;3.20;;;;;;;0.96;78.35;97821.80;1739822;81;21145;-67
2021/01/03 06:09:21;;;;;;;5.15;3.75;;;;;;;1.00;78.38;97822.00;1736268;81;21607;-66
2021/01/03 06:12:16;;;;;;;3.75;2.25;;;;;;;1.06;77.80;97829.75;1701814;83;21145;-67
2021/01/03 06:14:47;;;;;;;4.37;2.70;;;;;;;1.11;77.60;97836.27;1786211;79;21495;-67
2021/01/03 06:17:26;;;;;;;6.62;2.58;;;;;;;1.15;77.47;97831.34;1792223;79;21156;-66
2021/01/03 06:19:59;;;;;;;3.37;2.55;;;;;;;1.18;77.57;97827.78;1777950;79;21174;-66
2021/01/03 06:22:49;;;;;;;6.55;2.55;;;;;;;1.14;78.44;97830.97;1757851;80;21541;-66
2021/01/03 06:25:42;;;;;;;5.83;2.77;;;;;;;1.21;77.99;97839.11;1759332;81;21159;-66
2021/01/03 06:28:40;;;;;;;3.92;3.02;;;;;;;1.27;77.61;97842.16;1763967;81;21167;-66
2021/01/03 06:31:46;;;;;;;4.03;2.10;;;;;;;1.33;77.44;97843.06;1758954;80;21163;-66
2021/01/03 06:34:40;;;;;;;4.67;2.52;;;;;;;1.41;77.30;97847.73;1763985;80;21553;-66
2021/01/03 06:43:50;;;;;;;5.28;2.80;;;;;;;1.60;77.08;97842.36;1726816;82;21163;-66
2021/01/03 06:46:55;;;;;;;5.45;3.22;;;;;;;1.56;77.55;97838.34;1750788;82;21608;-66
2021/01/03 06:53:02;;;;;;;2.22;1.92;;;;;;;1.65;77.56;97835.25;1681745;82;21175;-67
2021/01/03 06:56:12;;;;;;;3.17;1.85;;;;;;;1.68;77.49;97839.73;1652862;87;21206;-66
2021/01/03 06:59:13;;;;;;;3.60;1.87;;;;;;;1.77;76.93;97842.20;1651928;85;21203;-65
2021/01/03 07:02:19;;;;;;;4.22;2.30;;;;;;;1.93;76.86;97826.30;1821776;77;23266;-67
2021/01/03 07:04:47;;;;;;;9.58;2.90;;;;;;;1.93;76.66;97830.13;1822607;79;21700;-67
2021/01/03 07:07:26;;;;;;;5.28;2.87;;;;;;;2.00;76.59;97826.73;1826503;78;21147;-67
2021/01/03 07:10:05;;;;;;;4.33;2.22;;;;;;;2.06;76.50;97822.53;1822583;79;21622;-67
2021/01/03 07:12:41;;;;;;;8.98;3.50;;;;;;;2.11;76.40;97820.04;1826472;78;21175;-68
2021/01/03 07:15:30;;;;;;;7.58;2.65;;;;;;;2.19;76.34;97814.44;1823318;79;21281;-71
2021/01/03 07:18:20;;;;;;;4.75;2.22;;;;;;;2.26;76.12;97815.70;1821286;79;21314;-66
2021/01/03 07:20:59;;;;;;;7.15;2.67;;;;;;;2.34;75.73;97813.03;1800203;78;21304;-68
2021/01/03 07:23:36;;;;;;;4.50;2.83;;;;;;;2.40;75.75;97828.50;1803437;79;21147;-67
2021/01/03 07:26:30;;;;;;;5.50;2.45;;;;;;;2.46;75.81;97822.98;1803213;79;21194;-68
2021/01/03 07:29:16;;;;;;;3.58;2.40;;;;;;;2.52;75.79;97827.73;1803138;79;21727;-67
2021/01/03 07:32:02;;;;;;;4.90;2.60;;;;;;;2.59;75.76;97824.33;1803109;79;21174;-65
2021/01/03 07:34:34;;;;;;;6.83;2.72;;;;;;;2.71;75.12;97816.69;1802978;79;21281;-66
2021/01/03 07:37:19;;;;;;;3.65;2.55;;;;;;;2.71;75.12;97816.69;1802915;79;21289;-66
2021/01/03 07:40:14;;;;;;;6.10;2.50;;;;;;;2.80;75.23;97825.05;1802616;79;21159;-64
2021/01/03 07:42:48;;;;;;;4.53;2.90;;;;;;;2.84;74.68;97822.66;1795509;79;21766;-64
2021/01/03 07:45:33;;;;;;;5.28;2.77;;;;;;;2.95;74.43;97813.02;1802172;79;21369;-63
2021/01/03 07:48:02;;;;;;;5.37;3.00;;;;;;;3.07;74.47;97806.27;1802005;79;21301;-65
2021/01/03 07:50:40;;;;;;;5.62;2.60;;;;;;;3.16;73.97;97803.90;1802423;79;21293;-67
2021/01/03 07:53:35;;;;;;;4.92;3.30;;;;;;;3.27;73.92;97816.84;1802866;79;21135;-65
2021/01/03 07:56:22;;;;;;;4.45;3.22;;;;;;;3.40;73.43;97815.58;1802668;79;21285;-65
2021/01/03 07:59:17;;;;;;;9.28;2.95;;;;;;;3.51;72.79;97809.72;1802395;79;21192;-65
2021/01/03 08:02:13;;;;;;;10.38;3.47;;;;;;;3.57;72.60;97816.56;1685044;85;21568;-64
2021/01/03 08:04:41;;;;;;;6.42;3.02;;;;;;;3.66;72.48;97813.36;1699578;83;21154;-64
2021/01/03 08:07:17;;;;;;;6.50;3.50;;;;;;;3.81;72.50;97808.95;1700127;84;21298;-64
2021/01/03 08:09:45;;;;;;;3.72;2.75;;;;;;;3.86;71.87;97806.05;1699747;84;21191;-64
2021/01/03 08:12:48;;;;;;;5.72;3.65;;;;;;;3.95;71.96;97817.81;1699578;84;21128;-64
2021/01/03 08:15:27;;;;;;;6.65;3.70;;;;;;;4.03;72.16;97814.72;1662244;85;21230;-64
2021/01/03 08:18:27;;;;;;;5.37;3.08;;;;;;;4.08;72.05;97819.08;1662403;85;21198;-65
2021/01/03 08:21:28;;;;;;;5.10;2.40;;;;;;;4.16;72.12;97812.46;1646130;85;21223;-64
2021/01/03 08:24:17;;;;;;;4.30;2.35;;;;;;;4.15;71.78;97817.73;1753165;81;21138;-64
2021/01/03 08:27:00;;;;;;;14.07;7.47;;;;;;;4.14;71.71;97818.64;1726205;82;21285;-64
2021/01/03 08:30:04;;;;;;;14.35;7.40;;;;;;;4.26;72.04;97821.66;1742601;82;21193;-64
2021/01/03 08:32:32;;;;;;;6.65;3.33;;;;;;;4.30;71.51;97816.20;1753804;81;21142;-65
2021/01/03 08:37:58;;;;;;;7.40;2.85;;;;;;;4.37;71.41;97813.18;1754014;81;21162;-67
2021/01/03 08:40:37;;;;;;;7.67;2.37;;;;;;;4.39;71.74;97813.91;1753622;81;21297;-66
2021/01/03 08:43:16;;;;;;;3.72;2.62;;;;;;;4.43;72.60;97820.48;1753566;81;21175;-68
2021/01/03 08:45:48;;;;;;;4.25;3.17;;;;;;;4.47;71.63;97824.48;1753906;82;21154;-66
2021/01/03 08:48:25;;;;;;;6.27;3.53;;;;;;;4.47;72.65;97823.19;1753860;82;21178;-66
2021/01/03 08:51:10;;;;;;;3.27;2.15;;;;;;;4.57;72.46;97831.89;1753377;82;21623;-68
2021/01/03 08:53:39;;;;;;;7.50;2.10;;;;;;;4.63;71.52;97830.98;1753280;82;21193;-68
2021/01/03 08:56:15;;;;;;;4.37;2.37;;;;;;;4.65;71.21;97833.45;1753515;82;21179;-69
2021/01/03 08:58:43;;;;;;;7.20;2.02;;;;;;;4.66;71.29;97833.36;1753719;82;21540;-67
2021/01/03 09:01:25;;;;;;;5.80;2.60;;;;;;;4.73;71.98;97831.16;1753216;82;21206;-68
2021/01/03 09:03:59;;;;;;;2.90;2.08;;;;;;;4.82;71.60;97833.55;1753202;82;21292;-67
2021/01/03 09:06:29;;;;;;;7.87;2.42;;;;;;;4.90;71.44;97842.82;1753437;82;21195;-67
2021/01/03 09:09:07;;;;;;;5.30;2.65;;;;;;;4.98;71.35;97842.60;1753518;82;21112;-67
2021/01/03 09:11:37;;;;;;;3.35;2.45;;;;;;;5.04;70.88;97849.07;1752628;81;21297;-68
2021/01/03 09:14:29;;;;;;;6.90;3.30;;;;;;;5.08;70.77;97850.03;1753612;81;21186;-67
2021/01/03 09:17:33;;;;;;;4.30;2.65;;;;;;;5.11;70.87;97851.55;1753415;81;21538;-68
2021/01/03 09:20:25;;;;;;;4.33;2.15;;;;;;;5.16;70.89;97864.45;1703736;83;21161;-66
2021/01/03 09:22:58;;;;;;;3.42;1.72;;;;;;;5.23;70.90;97855.81;1703284;84;21190;-68
2021/01/03 09:25:33;;;;;;;5.85;2.08;;;;;;;5.31;70.68;97855.24;1702664;83;21174;-66
2021/01/03 09:28:12;;;;;;;2.92;2.12;;;;;;;5.35;70.55;97857.95;1702191;84;21214;-68
2021/01/03 09:30:43;;;;;;;4.65;2.12;;;;;;;5.30;70.49;97857.45;1680679;84;21165;-67
2021/01/03 09:33:25;;;;;;;6.97;4.30;;;;;;;5.23;71.23;97870.79;1690565;85;21552;-67
2021/01/03 09:36:15;;;;;;;7.35;4.92;;;;;;;5.17;69.12;97873.83;1697670;84;21218;-67
2021/01/03 09:38:54;;;;;;;11.33;5.40;;;;;;;5.06;68.97;97856.20;1697137;84;21618;-67
2021/01/03 09:41:36;;;;;;;10.93;6.58;;;;;;;5.03;69.28;97862.40;1697956;84;21162;-65
2021/01/03 09:44:31;;;;;;;11.25;6.55;;;;;;;4.84;68.89;97859.50;1697753;84;21150;-65
2021/01/03 09:47:12;;;;;;;13.62;7.15;;;;;;;4.64;68.77;97859.63;1697862;84;21162;-64
2021/01/03 09:49:50;;;;;;;10.25;6.40;;;;;;;4.41;69.70;97857.86;1697897;84;21165;-64
2021/01/03 09:52:59;;;;;;;12.10;6.87;;;;;;;4.29;71.03;97850.53;1697838;84;21559;-64
2021/01/03 09:55:34;;;;;;;8.68;5.15;;;;;;;4.35;71.35;97865.19;1697699;83;21572;-67
2021/01/03 09:58:08;;;;;;;10.68;5.65;;;;;;;4.18;71.25;97853.03;1697800;84;21134;-67
2021/01/03 10:04:46;;;;;;;7.22;4.05;;;;;;;4.18;72.87;97851.74;1720659;83;21128;-66
2021/01/03 10:10:51;;;;;;;7.05;4.67;;;;;;;4.38;72.62;97848.25;1695092;84;21211;-70
2021/01/03 10:13:22;;;;;;;9.18;5.55;;;;;;;4.43;73.39;97848.77;1695947;84;21241;-67
2021/01/03 10:15:49;;;;;;;10.25;5.50;;;;;;;4.47;74.47;97835.59;1696131;84;21178;-67
2021/01/03 10:18:49;;;;;;;9.93;5.42;;;;;;;4.53;76.61;97842.03;1695769;84;21570;-67
2021/01/03 10:21:50;;;;;;;9.08;5.20;;;;;;;4.60;74.82;97836.80;1735215;82;21213;-66
2021/01/03 10:24:23;;;;;;;10.63;5.97;;;;;;;4.68;73.97;97821.66;1698254;83;21187;-66
2021/01/03 10:27:25;;;;;;;12.90;6.05;;;;;;;4.58;76.33;97824.53;1713310;84;21318;-67
2021/01/03 10:30:13;;;;;;;9.93;5.42;;;;;;;4.66;76.44;97818.39;1575776;88;21188;-66
2021/01/03 10:32:41;;;;;;;7.85;3.80;;;;;;;4.70;77.72;97810.80;1709810;83;21159;-66
2021/01/03 10:35:10;;;;;;;7.90;4.47;;;;;;;4.77;78.03;97811.54;1709551;83;21427;-67
2021/01/03 10:37:38;;;;;;;6.87;3.62;;;;;;;4.77;78.60;97803.00;1707417;83;21305;-67
2021/01/03 10:40:09;;;;;;;5.45;4.22;;;;;;;4.86;78.17;97788.19;1707421;84;21175;-66
2021/01/03 10:42:36;;;;;;;5.45;3.52;;;;;;;4.83;78.44;97782.42;1707435;84;21227;-67
2021/01/03 10:48:23;;;;;;;5.53;3.20;;;;;;;4.87;78.10;97780.80;1755545;81;21148;-67
2021/01/03 10:50:51;;;;;;;7.05;2.98;;;;;;;4.99;77.93;97776.05;1791132;79;21129;-66
2021/01/03 10:53:19;;;;;;;5.00;3.50;;;;;;;5.02;78.67;97777.11;1809648;79;21137;-66
2021/01/03 10:55:47;;;;;;;5.08;3.50;;;;;;;5.03;78.90;97774.90;1755686;80;21195;-67
2021/01/03 10:58:17;;;;;;;5.55;3.27;;;;;;;5.11;78.02;97779.02;1752188;82;21289;-66
2021/01/03 11:00:46;;;;;;;6.78;3.83;;;;;;;5.20;77.80;97771.91;1755444;80;21137;-66
2021/01/03 11:03:13;;;;;;;5.17;2.85;;;;;;;5.18;78.79;97767.33;1756099;80;21157;-67
2021/01/03 11:05:41;;;;;;;11.03;3.65;;;;;;;5.36;78.22;97759.17;1755870;81;21542;-66
2021/01/03 11:08:09;;;;;;;3.02;2.72;;;;;;;5.29;78.89;97760.58;1755916;80;21153;-67
2021/01/03 11:10:37;;;;;;;10.65;3.40;;;;;;;5.45;78.46;97752.84;1756165;81;21154;-66
2021/01/03 11:13:05;;;;;;;3.67;2.65;;;;;;;5.64;77.87;97749.72;1755773;81;21484;-67
2021/01/03 11:15:33;;;;;;;3.65;2.72;;;;;;;5.65;77.67;97743.14;1755961;81;21160;-66
2021/01/03 11:18:02;;;;;;;5.00;2.80;;;;;;;5.70;77.40;97746.66;1756117;81;21145;-66
2021/01/03 11:20:30;;;;;;;5.22;3.30;;;;;;;5.73;77.53;97740.80;1755876;81;21145;-66
2021/01/03 11:22:58;;;;;;;2.62;1.60;;;;;;;5.81;77.44;97736.34;1756088;81;21158;-66
2021/01/03 11:25:26;;;;;;;3.67;1.92;;;;;;;5.89;77.16;97740.94;1755769;81;21122;-67
2021/01/03 11:27:54;;;;;;;3.62;2.02;;;;;;;5.94;76.97;97734.50;1755905;81;21184;-66
2021/01/03 11:30:43;;;;;;;3.62;2.80;;;;;;;5.95;77.29;97733.53;1755541;80;21165;-67
2021/01/03 11:33:11;;;;;;;3.98;2.05;;;;;;;5.98;77.09;97737.19;1757763;81;21328;-67
2021/01/03 11:35:39;;;;;;;3.17;1.37;;;;;;;6.18;76.32;97731.30;1757606;81;21650;-68
2021/01/03 11:38:07;;;;;;;1.90;1.42;;;;;;;6.24;75.60;97729.15;1757695;81;21199;-67
2021/01/03 11:40:35;;;;;;;6.25;2.27;;;;;;;6.35;75.25;97726.53;1757963;81;21265;-67
2021/01/03 11:43:03;;;;;;;3.62;1.85;;;;;;;6.30;75.04;97735.13;1757885;81;21289;-65
2021/01/03 11:45:31;;;;;;;2.10;1.87;;;;;;;6.15;75.44;97736.67;1757774;81;21285;-64
2021/01/03 11:47:59;;;;;;;2.87;1.72;;;;;;;6.07;75.93;97748.55;1757727;81;21333;-64
2021/01/03 11:50:29;;;;;;;3.17;2.45;;;;;;;6.11;75.78;97744.76;1757796;81;21222;-64
2021/01/03 11:52:58;;;;;;;3.55;2.55;;;;;;;5.99;76.34;97739.30;1757941;81;21328;-65
2021/01/03 11:55:26;;;;;;;5.10;2.83;;;;;;;5.84;77.80;97737.39;1757974;81;21299;-65
2021/01/03 11:57:54;;;;;;;5.30;2.80;;;;;;;5.93;77.24;97741.05;1758177;81;21157;-64
2021/01/03 12:00:25;;;;;;;5.00;1.90;;;;;;;5.72;77.55;97744.77;1757619;81;21205;-64
2021/01/03 12:02:53;;;;;;;5.87;2.87;;;;;;;5.78;77.25;97744.78;1757937;81;21295;-64
2021/01/03 12:05:21;;;;;;;5.05;2.47;;;;;;;5.60;78.16;97753.47;1757744;81;21279;-65
2021/01/03 12:07:49;;;;;;;3.47;2.75;;;;;;;5.54;78.14;97760.35;1757761;81;21400;-65
2021/01/03 12:10:18;;;;;;;4.83;2.70;;;;;;;5.43;78.43;97752.16;1758298;81;21287;-64
2021/01/03 12:12:46;;;;;;;7.83;3.40;;;;;;;5.40;78.53;97754.15;1758308;81;21359;-68
2021/01/03 12:15:14;;;;;;;5.33;2.67;;;;;;;5.22;79.15;97754.58;1756745;81;21707;-67
2021/01/03 12:17:42;;;;;;;6.45;4.15;;;;;;;5.46;78.49;97751.09;1749880;81;21155;-65
2021/01/03 12:20:32;;;;;;;7.05;3.83;;;;;;;5.43;79.25;97757.31;1747047;82;21168;-65
2021/01/03 12:23:00;;;;;;;5.92;3.87;;;;;;;5.37;79.26;97748.73;1736507;82;21241;-64
2021/01/03 12:25:29;;;;;;;6.05;2.95;;;;;;;5.47;79.15;97748.88;1756611;80;22258;-65
2021/01/03 12:27:57;;;;;;;5.10;3.60;;;;;;;5.44;79.21;97752.98;1752241;81;21204;-64
2021/01/03 12:33:05;;;;;;;5.70;2.60;;;;;;;5.41;79.19;97766.89;1719945;82;21148;-70
2021/01/03 12:35:34;;;;;;;7.75;3.52;;;;;;;5.39;78.98;97748.64;1694117;83;21501;-64
2021/01/03 12:38:02;;;;;;;5.97;3.62;;;;;;;5.29;79.68;97763.15;1674860;83;21208;-65
2021/01/03 12:40:30;;;;;;;3.67;2.55;;;;;;;5.40;79.02;97749.82;1705932;83;21560;-64
2021/01/03 12:42:59;;;;;;;4.03;2.92;;;;;;;5.50;78.17;97767.50;1705935;83;21633;-64
2021/01/03 12:45:28;;;;;;;6.45;3.67;;;;;;;5.46;78.75;97769.95;1701881;82;21174;-65
2021/01/03 12:47:59;;;;;;;4.03;2.47;;;;;;;5.36;79.69;97762.58;1696318;84;21749;-65
2021/01/03 12:50:28;;;;;;;7.17;4.03;;;;;;;5.49;78.56;97766.31;1682710;85;21333;-65
2021/01/03 12:52:57;;;;;;;5.00;3.12;;;;;;;5.46;78.71;97761.40;1681789;84;21195;-65
2021/01/03 12:55:25;;;;;;;3.35;2.87;;;;;;;5.54;79.04;97753.91;1695841;83;21546;-64
2021/01/03 12:57:54;;;;;;;5.95;3.33;;;;;;;5.40;79.38;97754.15;1697958;82;21358;-64
2021/01/03 13:00:44;;;;;;;4.62;3.33;;;;;;;5.57;78.89;97751.09;1681117;84;21611;-65
2021/01/03 13:03:15;;;;;;;7.12;3.35;;;;;;;5.48;79.64;97764.23;1719238;82;21577;-65